createdAt,value
2017-01-31T00:00:24.276Z,0
2017-01-31T00:01:24.211Z,0
2017-01-31T00:02:25.058Z,0
2017-01-31T00:03:24.276Z,0
2017-01-31T00:04:24.673Z,0
2017-01-31T00:05:24.213Z,0
2017-01-31T00:06:23.773Z,0
2017-01-31T00:07:24.532Z,0
2017-01-31T00:08:24.096Z,0
2017-01-31T00:09:23.623Z,0
2017-01-31T00:10:24.461Z,0
2017-01-31T00:11:24.867Z,0
2017-01-31T00:12:23.549Z,0
2017-01-31T00:13:23.525Z,0
2017-01-31T00:14:23.898Z,0
2017-01-31T00:15:24.324Z,0
2017-01-31T00:16:23.846Z,0
2017-01-31T00:17:24.227Z,0
2017-01-31T00:18:24.606Z,0
2017-01-31T00:19:23.853Z,0
2017-01-31T00:20:24.141Z,0
2017-01-31T00:21:24.214Z,0
2017-01-31T00:22:23.704Z,0
2017-01-31T00:23:23.683Z,0
2017-01-31T00:24:24.053Z,0
2017-01-31T00:25:24.439Z,0
2017-01-31T00:26:24.401Z,0
2017-01-31T00:27:24.062Z,0
2017-01-31T00:28:23.681Z,0
2017-01-31T00:29:24.340Z,0
2017-01-31T00:30:23.529Z,0
2017-01-31T00:31:23.971Z,0
2017-01-31T00:32:23.881Z,0
2017-01-31T00:33:23.821Z,0
2017-01-31T00:34:23.398Z,0
2017-01-31T00:35:23.374Z,0
2017-01-31T00:36:23.758Z,0
2017-01-31T00:37:23.396Z,0
2017-01-31T00:38:23.306Z,0
2017-01-31T00:39:23.687Z,0
2017-01-31T00:40:23.244Z,0
2017-01-31T00:41:23.213Z,0
2017-01-31T00:42:23.213Z,0
2017-01-31T00:43:23.633Z,0
2017-01-31T00:44:23.586Z,0
2017-01-31T00:45:23.948Z,0
2017-01-31T00:46:23.512Z,0
2017-01-31T00:47:23.085Z,0
2017-01-31T00:48:23.856Z,0
2017-01-31T00:49:23.437Z,0
2017-01-31T00:50:22.999Z,0
2017-01-31T00:51:23.779Z,0
2017-01-31T00:52:22.980Z,0
2017-01-31T00:53:23.339Z,0
2017-01-31T00:54:22.502Z,0
2017-01-31T00:55:23.297Z,0
2017-01-31T00:56:22.875Z,0
2017-01-31T00:57:23.235Z,0
2017-01-31T00:58:22.404Z,0
2017-01-31T00:59:23.580Z,0
2017-01-31T01:00:23.577Z,0
2017-01-31T01:01:23.194Z,0
2017-01-31T01:02:22.723Z,0
2017-01-31T01:03:22.287Z,0
2017-01-31T01:04:22.656Z,0
2017-01-31T01:05:22.688Z,0
2017-01-31T01:06:23.070Z,0
2017-01-31T01:07:22.195Z,0
2017-01-31T01:08:22.571Z,0
2017-01-31T01:09:22.542Z,0
2017-01-31T01:10:22.514Z,0
2017-01-31T01:11:22.584Z,0
2017-01-31T01:12:23.281Z,0
2017-01-31T01:13:22.929Z,0
2017-01-31T01:14:22.817Z,0
2017-01-31T01:15:22.484Z,0
2017-01-31T01:16:22.775Z,0
2017-01-31T01:17:22.971Z,0
2017-01-31T01:18:22.750Z,0
2017-01-31T01:19:22.708Z,0
2017-01-31T01:20:22.262Z,0
2017-01-31T01:21:22.661Z,0
2017-01-31T01:22:22.611Z,0
2017-01-31T01:23:22.657Z,0
2017-01-31T01:24:22.167Z,0
2017-01-31T01:25:22.550Z,0
2017-01-31T01:26:22.120Z,0
2017-01-31T01:27:22.496Z,0
2017-01-31T01:28:22.069Z,0
2017-01-31T01:29:22.571Z,0
2017-01-31T01:30:22.467Z,0
2017-01-31T01:31:22.006Z,0
2017-01-31T01:32:22.364Z,0
2017-01-31T01:33:22.073Z,0
2017-01-31T01:34:22.361Z,0
2017-01-31T01:35:22.304Z,0
2017-01-31T01:36:22.275Z,0
2017-01-31T01:37:22.265Z,0
2017-01-31T01:38:22.312Z,0
2017-01-31T01:39:22.202Z,0
2017-01-31T01:40:22.179Z,0
2017-01-31T01:41:21.811Z,0
2017-01-31T01:42:21.732Z,0
2017-01-31T01:43:22.196Z,0
2017-01-31T01:44:22.474Z,0
2017-01-31T01:45:21.324Z,0
2017-01-31T01:46:21.619Z,0
2017-01-31T01:47:21.595Z,0
2017-01-31T01:48:21.987Z,0
2017-01-31T01:49:21.955Z,0
2017-01-31T01:50:21.524Z,0
2017-01-31T01:51:22.377Z,0
2017-01-31T01:52:21.900Z,0
2017-01-31T01:53:21.856Z,0
2017-01-31T01:54:21.025Z,0
2017-01-31T01:55:21.044Z,0
2017-01-31T01:56:21.800Z,0
2017-01-31T01:57:21.409Z,0
2017-01-31T01:58:21.347Z,0
2017-01-31T01:59:21.763Z,0
2017-01-31T02:00:20.861Z,0
2017-01-31T02:01:22.070Z,0
2017-01-31T02:02:21.313Z,0
2017-01-31T02:03:21.214Z,0
2017-01-31T02:04:21.330Z,0
2017-01-31T02:05:21.570Z,0
2017-01-31T02:06:21.958Z,0
2017-01-31T02:07:20.309Z,0
2017-01-31T02:08:21.476Z,0
2017-01-31T02:09:21.882Z,0
2017-01-31T02:10:20.633Z,0
2017-01-31T02:11:20.612Z,0
2017-01-31T02:12:21.388Z,0
2017-01-31T02:13:20.156Z,0
2017-01-31T02:14:21.325Z,0
2017-01-31T02:15:20.500Z,0
2017-01-31T02:16:21.294Z,0
2017-01-31T02:17:21.661Z,0
2017-01-31T02:18:20.830Z,0
2017-01-31T02:19:21.630Z,0
2017-01-31T02:20:21.182Z,0
2017-01-31T02:21:20.771Z,0
2017-01-31T02:22:20.731Z,0
2017-01-31T02:23:20.709Z,0
2017-01-31T02:24:20.691Z,0
2017-01-31T02:25:20.678Z,0
2017-01-31T02:26:20.647Z,0
2017-01-31T02:27:21.048Z,0
2017-01-31T02:28:20.996Z,0
2017-01-31T02:29:20.967Z,0
2017-01-31T02:30:21.344Z,0
2017-01-31T02:31:20.513Z,0
2017-01-31T02:32:21.345Z,0
2017-01-31T02:33:20.455Z,0
2017-01-31T02:34:20.880Z,0
2017-01-31T02:35:20.414Z,0
2017-01-31T02:36:20.819Z,0
2017-01-31T02:37:20.763Z,0
2017-01-31T02:38:20.885Z,0
2017-01-31T02:39:20.712Z,0
2017-01-31T02:40:19.891Z,0
2017-01-31T02:41:20.313Z,0
2017-01-31T02:42:20.337Z,0
2017-01-31T02:43:20.631Z,0
2017-01-31T02:44:19.809Z,0
2017-01-31T02:45:20.589Z,0
2017-01-31T02:46:21.082Z,0
2017-01-31T02:47:20.534Z,0
2017-01-31T02:48:19.320Z,0
2017-01-31T02:49:20.075Z,0
2017-01-31T02:50:20.504Z,0
2017-01-31T02:51:20.422Z,0
2017-01-31T02:52:20.895Z,0
2017-01-31T02:53:19.994Z,0
2017-01-31T02:54:20.404Z,0
2017-01-31T02:55:19.911Z,0
2017-01-31T02:56:19.952Z,0
2017-01-31T02:57:19.929Z,0
2017-01-31T02:58:20.249Z,0
2017-01-31T02:59:19.170Z,0
2017-01-31T03:00:20.210Z,0
2017-01-31T03:01:19.366Z,0
2017-01-31T03:02:19.778Z,0
2017-01-31T03:03:20.118Z,0
2017-01-31T03:04:20.105Z,0
2017-01-31T03:05:19.676Z,0
2017-01-31T03:06:19.648Z,0
2017-01-31T03:07:19.624Z,0
2017-01-31T03:08:20.008Z,0
2017-01-31T03:09:19.975Z,0
2017-01-31T03:10:20.362Z,0
2017-01-31T03:11:20.384Z,0
2017-01-31T03:12:19.924Z,0
2017-01-31T03:13:19.213Z,0
2017-01-31T03:14:19.483Z,0
2017-01-31T03:15:19.018Z,0
2017-01-31T03:16:19.390Z,0
2017-01-31T03:17:20.200Z,0
2017-01-31T03:18:18.994Z,0
2017-01-31T03:19:20.131Z,0
2017-01-31T03:20:20.111Z,0
2017-01-31T03:21:19.272Z,0
2017-01-31T03:22:19.241Z,0
2017-01-31T03:23:18.828Z,0
2017-01-31T03:24:19.207Z,0
2017-01-31T03:25:19.998Z,0
2017-01-31T03:26:18.795Z,0
2017-01-31T03:27:19.535Z,0
2017-01-31T03:28:19.973Z,0
2017-01-31T03:29:18.675Z,0
2017-01-31T03:30:19.443Z,0
2017-01-31T03:31:19.039Z,0
2017-01-31T03:32:19.432Z,0
2017-01-31T03:33:19.382Z,0
2017-01-31T03:34:19.809Z,0
2017-01-31T03:35:18.922Z,0
2017-01-31T03:36:18.911Z,0
2017-01-31T03:37:19.690Z,0
2017-01-31T03:38:18.857Z,0
2017-01-31T03:39:19.639Z,0
2017-01-31T03:40:18.823Z,0
2017-01-31T03:41:19.208Z,0
2017-01-31T03:42:18.764Z,0
2017-01-31T03:43:19.153Z,0
2017-01-31T03:44:18.715Z,0
2017-01-31T03:45:18.283Z,0
2017-01-31T03:46:18.243Z,0
2017-01-31T03:47:19.034Z,0
2017-01-31T03:48:18.612Z,0
2017-01-31T03:49:18.594Z,0
2017-01-31T03:50:19.405Z,0
2017-01-31T03:51:18.544Z,0
2017-01-31T03:52:18.512Z,0
2017-01-31T03:53:18.895Z,0
2017-01-31T03:54:18.850Z,0
2017-01-31T03:55:18.040Z,0
2017-01-31T03:56:18.400Z,0
2017-01-31T03:57:18.383Z,0
2017-01-31T03:58:17.961Z,0
2017-01-31T03:59:18.790Z,0
2017-01-31T04:00:18.319Z,0
2017-01-31T04:01:18.698Z,0
2017-01-31T04:02:18.256Z,0
2017-01-31T04:03:18.729Z,0
2017-01-31T04:04:18.616Z,0
2017-01-31T04:05:18.205Z,0
2017-01-31T04:06:17.764Z,0
2017-01-31T04:07:18.585Z,0
2017-01-31T04:08:18.521Z,0
2017-01-31T04:09:18.596Z,0
2017-01-31T04:10:18.057Z,0
2017-01-31T04:11:18.993Z,0
2017-01-31T04:12:18.412Z,0
2017-01-31T04:13:18.018Z,0
2017-01-31T04:14:17.961Z,0
2017-01-31T04:15:18.000Z,0
2017-01-31T04:16:18.369Z,0
2017-01-31T04:17:17.950Z,0
2017-01-31T04:18:18.268Z,0
2017-01-31T04:19:17.852Z,0
2017-01-31T04:20:18.268Z,0
2017-01-31T04:21:17.398Z,0
2017-01-31T04:22:18.157Z,0
2017-01-31T04:23:17.807Z,0
2017-01-31T04:24:17.766Z,0
2017-01-31T04:25:18.116Z,0
2017-01-31T04:26:18.065Z,0
2017-01-31T04:27:18.474Z,0
2017-01-31T04:28:18.013Z,0
2017-01-31T04:29:17.590Z,0
2017-01-31T04:30:18.374Z,0
2017-01-31T04:31:17.955Z,0
2017-01-31T04:32:18.363Z,0
2017-01-31T04:33:17.552Z,0
2017-01-31T04:34:17.476Z,0
2017-01-31T04:35:17.851Z,0
2017-01-31T04:36:17.418Z,0
2017-01-31T04:37:17.800Z,0
2017-01-31T04:38:18.177Z,0
2017-01-31T04:39:17.758Z,0
2017-01-31T04:40:17.788Z,0
2017-01-31T04:41:17.759Z,0
2017-01-31T04:42:16.865Z,0
2017-01-31T04:43:16.897Z,0
2017-01-31T04:44:17.625Z,0
2017-01-31T04:45:17.612Z,0
2017-01-31T04:46:16.769Z,0
2017-01-31T04:47:17.152Z,0
2017-01-31T04:48:17.128Z,0
2017-01-31T04:49:17.103Z,0
2017-01-31T04:50:16.693Z,0
2017-01-31T04:51:17.443Z,0
2017-01-31T04:52:17.431Z,0
2017-01-31T04:53:17.409Z,0
2017-01-31T04:54:17.369Z,0
2017-01-31T04:55:17.812Z,0
2017-01-31T04:56:16.917Z,0
2017-01-31T04:57:17.308Z,0
2017-01-31T04:58:16.978Z,0
2017-01-31T04:59:16.848Z,0
2017-01-31T05:00:16.824Z,0
2017-01-31T05:01:16.789Z,0
2017-01-31T05:02:16.367Z,0
2017-01-31T05:03:17.586Z,0
2017-01-31T05:04:16.731Z,0
2017-01-31T05:05:17.144Z,0
2017-01-31T05:06:16.693Z,0
2017-01-31T05:07:16.234Z,0
2017-01-31T05:08:16.626Z,0
2017-01-31T05:09:17.001Z,0
2017-01-31T05:10:16.990Z,0
2017-01-31T05:11:16.542Z,0
2017-01-31T05:12:16.944Z,0
2017-01-31T05:13:16.564Z,0
2017-01-31T05:14:16.875Z,0
2017-01-31T05:15:16.050Z,0
2017-01-31T05:16:16.850Z,0
2017-01-31T05:17:15.994Z,0
2017-01-31T05:18:16.765Z,0
2017-01-31T05:19:16.757Z,0
2017-01-31T05:20:16.325Z,0
2017-01-31T05:21:16.293Z,0
2017-01-31T05:22:16.275Z,0
2017-01-31T05:23:16.666Z,0
2017-01-31T05:24:16.226Z,0
2017-01-31T05:25:15.796Z,0
2017-01-31T05:26:16.585Z,0
2017-01-31T05:27:15.747Z,0
2017-01-31T05:28:16.142Z,0
2017-01-31T05:29:16.502Z,0
2017-01-31T05:30:16.072Z,0
2017-01-31T05:31:16.072Z,0
2017-01-31T05:32:16.031Z,0
2017-01-31T05:33:15.997Z,0
2017-01-31T05:34:16.475Z,0
2017-01-31T05:35:15.959Z,0
2017-01-31T05:36:16.050Z,0
2017-01-31T05:37:16.330Z,0
2017-01-31T05:38:15.883Z,0
2017-01-31T05:39:16.260Z,0
2017-01-31T05:40:15.402Z,0
2017-01-31T05:41:16.203Z,0
2017-01-31T05:42:15.776Z,0
2017-01-31T05:43:15.745Z,0
2017-01-31T05:44:16.134Z,0
2017-01-31T05:45:15.336Z,0
2017-01-31T05:46:16.489Z,0
2017-01-31T05:47:16.049Z,0
2017-01-31T05:48:15.639Z,0
2017-01-31T05:49:15.208Z,0
2017-01-31T05:50:15.277Z,0
2017-01-31T05:51:15.537Z,0
2017-01-31T05:52:15.523Z,0
2017-01-31T05:53:16.311Z,0
2017-01-31T05:54:15.129Z,0
2017-01-31T05:55:15.872Z,0
2017-01-31T05:56:15.434Z,0
2017-01-31T05:57:15.431Z,0
2017-01-31T05:58:15.393Z,0
2017-01-31T05:59:15.841Z,0
2017-01-31T06:00:14.978Z,0
2017-01-31T06:01:16.109Z,0
2017-01-31T06:02:15.361Z,0
2017-01-31T06:03:15.308Z,0
2017-01-31T06:04:15.631Z,0
2017-01-31T06:05:16.010Z,0
2017-01-31T06:06:14.792Z,0
2017-01-31T06:07:15.160Z,0
2017-01-31T06:08:15.521Z,0
2017-01-31T06:09:15.180Z,0
2017-01-31T06:10:14.681Z,0
2017-01-31T06:11:15.053Z,0
2017-01-31T06:12:15.479Z,0
2017-01-31T06:13:15.434Z,0
2017-01-31T06:14:15.398Z,0
2017-01-31T06:15:15.358Z,0
2017-01-31T06:16:14.937Z,0
2017-01-31T06:17:15.315Z,0
2017-01-31T06:18:15.721Z,0
2017-01-31T06:19:15.263Z,0
2017-01-31T06:20:14.434Z,0
2017-01-31T06:21:14.410Z,0
2017-01-31T06:22:14.783Z,0
2017-01-31T06:23:14.353Z,0
2017-01-31T06:24:15.596Z,0
2017-01-31T06:25:14.709Z,0
2017-01-31T06:26:14.719Z,0
2017-01-31T06:27:15.061Z,0
2017-01-31T06:28:14.644Z,0
2017-01-31T06:29:15.504Z,0
2017-01-31T06:30:14.978Z,0
2017-01-31T06:31:14.566Z,0
2017-01-31T06:32:14.978Z,0
2017-01-31T06:33:14.917Z,0
2017-01-31T06:34:14.887Z,0
2017-01-31T06:35:14.457Z,0
2017-01-31T06:36:13.746Z,0
2017-01-31T06:37:14.905Z,0
2017-01-31T06:38:14.891Z,0
2017-01-31T06:39:14.394Z,0
2017-01-31T06:40:13.913Z,0
2017-01-31T06:41:14.752Z,0
2017-01-31T06:42:14.669Z,0
2017-01-31T06:43:15.139Z,0
2017-01-31T06:44:14.637Z,0
2017-01-31T06:45:15.066Z,0
2017-01-31T06:46:14.201Z,0
2017-01-31T06:47:14.155Z,0
2017-01-31T06:48:14.534Z,0
2017-01-31T06:49:14.176Z,0
2017-01-31T06:50:14.969Z,0
2017-01-31T06:51:14.869Z,0
2017-01-31T06:52:13.245Z,0
2017-01-31T06:53:13.626Z,0
2017-01-31T06:54:14.387Z,0
2017-01-31T06:55:14.095Z,0
2017-01-31T06:56:14.336Z,0
2017-01-31T06:57:14.301Z,0
2017-01-31T06:58:13.472Z,0
2017-01-31T06:59:14.393Z,0
2017-01-31T07:00:13.873Z,0
2017-01-31T07:01:14.363Z,0
2017-01-31T07:02:14.187Z,0
2017-01-31T07:03:13.370Z,0
2017-01-31T07:04:13.382Z,0
2017-01-31T07:05:13.372Z,0
2017-01-31T07:06:13.798Z,0
2017-01-31T07:07:13.329Z,0
2017-01-31T07:08:14.045Z,0
2017-01-31T07:09:14.012Z,0
2017-01-31T07:10:13.639Z,0
2017-01-31T07:11:13.567Z,0
2017-01-31T07:12:13.547Z,0
2017-01-31T07:13:13.537Z,0
2017-01-31T07:14:13.088Z,0
2017-01-31T07:15:13.448Z,0
2017-01-31T07:16:14.245Z,0
2017-01-31T07:17:13.835Z,0
2017-01-31T07:18:13.844Z,0
2017-01-31T07:19:13.443Z,0
2017-01-31T07:20:13.742Z,0
2017-01-31T07:21:12.961Z,0
2017-01-31T07:22:13.322Z,0
2017-01-31T07:23:12.913Z,0
2017-01-31T07:24:13.647Z,0
2017-01-31T07:25:12.920Z,0
2017-01-31T07:26:13.761Z,0
2017-01-31T07:27:13.597Z,0
2017-01-31T07:28:13.614Z,0
2017-01-31T07:29:13.931Z,0
2017-01-31T07:30:13.218Z,0
2017-01-31T07:31:12.778Z,0
2017-01-31T07:32:13.847Z,0
2017-01-31T07:33:13.023Z,0
2017-01-31T07:34:12.624Z,0
2017-01-31T07:35:13.396Z,0
2017-01-31T07:36:13.741Z,0
2017-01-31T07:37:12.504Z,0
2017-01-31T07:38:13.737Z,0
2017-01-31T07:39:13.684Z,0
2017-01-31T07:40:12.010Z,0
2017-01-31T07:41:13.219Z,0
2017-01-31T07:42:13.192Z,0
2017-01-31T07:43:13.173Z,0
2017-01-31T07:44:12.750Z,0
2017-01-31T07:45:12.749Z,0
2017-01-31T07:46:13.109Z,0
2017-01-31T07:47:12.658Z,0
2017-01-31T07:48:13.489Z,0
2017-01-31T07:49:12.242Z,0
2017-01-31T07:50:13.059Z,0
2017-01-31T07:51:12.978Z,0
2017-01-31T07:52:12.945Z,0
2017-01-31T07:53:13.017Z,0
2017-01-31T07:54:12.481Z,0
2017-01-31T07:55:13.275Z,0
2017-01-31T07:56:12.037Z,0
2017-01-31T07:57:12.436Z,0
2017-01-31T07:58:11.592Z,0
2017-01-31T07:59:12.773Z,0
2017-01-31T08:00:12.745Z,0
2017-01-31T08:01:12.793Z,0
2017-01-31T08:02:12.296Z,0
2017-01-31T08:03:12.671Z,0
2017-01-31T08:04:12.233Z,0
2017-01-31T08:05:12.241Z,0
2017-01-31T08:06:12.599Z,0
2017-01-31T08:07:11.851Z,0
2017-01-31T08:08:12.565Z,0
2017-01-31T08:09:12.520Z,0
2017-01-31T08:10:12.107Z,0
2017-01-31T08:11:12.074Z,0
2017-01-31T08:12:11.683Z,5
2017-01-31T08:13:12.426Z,5
2017-01-31T08:14:12.807Z,5
2017-01-31T08:15:12.786Z,5
2017-01-31T08:16:12.005Z,5
2017-01-31T08:17:12.325Z,5
2017-01-31T08:18:12.692Z,10
2017-01-31T08:19:12.723Z,10
2017-01-31T08:20:12.277Z,10
2017-01-31T08:21:11.419Z,10
2017-01-31T08:22:11.831Z,10
2017-01-31T08:23:11.358Z,10
2017-01-31T08:24:12.292Z,15
2017-01-31T08:25:12.119Z,15
2017-01-31T08:26:11.746Z,15
2017-01-31T08:27:12.073Z,15
2017-01-31T08:28:12.071Z,15
2017-01-31T08:29:12.460Z,20
2017-01-31T08:30:11.623Z,20
2017-01-31T08:31:12.427Z,20
2017-01-31T08:32:12.355Z,15
2017-01-31T08:33:11.552Z,15
2017-01-31T08:34:11.890Z,15
2017-01-31T08:35:12.274Z,15
2017-01-31T08:36:11.836Z,15
2017-01-31T08:37:12.266Z,15
2017-01-31T08:38:11.811Z,15
2017-01-31T08:39:11.784Z,15
2017-01-31T08:40:10.981Z,15
2017-01-31T08:41:10.919Z,15
2017-01-31T08:42:11.691Z,15
2017-01-31T08:43:11.387Z,15
2017-01-31T08:44:11.251Z,15
2017-01-31T08:45:11.219Z,15
2017-01-31T08:46:11.999Z,15
2017-01-31T08:47:11.589Z,20
2017-01-31T08:48:11.551Z,20
2017-01-31T08:49:10.727Z,20
2017-01-31T08:50:10.702Z,20
2017-01-31T08:51:11.884Z,20
2017-01-31T08:52:11.524Z,20
2017-01-31T08:53:11.045Z,20
2017-01-31T08:54:11.013Z,20
2017-01-31T08:55:11.785Z,20
2017-01-31T08:56:11.415Z,20
2017-01-31T08:57:10.913Z,25
2017-01-31T08:58:11.382Z,25
2017-01-31T08:59:10.923Z,30
2017-01-31T09:00:10.874Z,30
2017-01-31T09:01:10.933Z,25
2017-01-31T09:02:11.222Z,25
2017-01-31T09:03:11.591Z,25
2017-01-31T09:04:10.753Z,25
2017-01-31T09:05:11.127Z,25
2017-01-31T09:06:11.099Z,25
2017-01-31T09:07:10.669Z,25
2017-01-31T09:08:10.350Z,25
2017-01-31T09:09:11.034Z,25
2017-01-31T09:10:11.410Z,25
2017-01-31T09:11:10.173Z,25
2017-01-31T09:12:10.619Z,25
2017-01-31T09:13:10.945Z,20
2017-01-31T09:14:10.525Z,25
2017-01-31T09:15:10.558Z,25
2017-01-31T09:16:10.113Z,20
2017-01-31T09:17:10.485Z,20
2017-01-31T09:18:10.803Z,20
2017-01-31T09:19:10.923Z,20
2017-01-31T09:20:10.861Z,20
2017-01-31T09:21:10.750Z,20
2017-01-31T09:22:10.301Z,15
2017-01-31T09:23:10.701Z,15
2017-01-31T09:24:10.751Z,15
2017-01-31T09:25:10.655Z,15
2017-01-31T09:26:10.632Z,15
2017-01-31T09:27:10.592Z,15
2017-01-31T09:28:10.265Z,20
2017-01-31T09:29:10.572Z,20
2017-01-31T09:30:10.530Z,25
2017-01-31T09:31:10.496Z,30
2017-01-31T09:32:10.087Z,30
2017-01-31T09:33:10.433Z,35
2017-01-31T09:34:10.873Z,30
2017-01-31T09:35:09.593Z,30
2017-01-31T09:36:09.971Z,30
2017-01-31T09:37:09.166Z,30
2017-01-31T09:38:09.108Z,25
2017-01-31T09:39:10.705Z,25
2017-01-31T09:40:10.679Z,25
2017-01-31T09:41:10.250Z,25
2017-01-31T09:42:10.705Z,20
2017-01-31T09:43:10.609Z,20
2017-01-31T09:44:10.182Z,20
2017-01-31T09:45:09.400Z,20
2017-01-31T09:46:10.531Z,20
2017-01-31T09:47:09.703Z,20
2017-01-31T09:48:10.065Z,20
2017-01-31T09:49:10.455Z,20
2017-01-31T09:50:09.653Z,20
2017-01-31T09:51:09.216Z,20
2017-01-31T09:52:09.633Z,20
2017-01-31T09:53:10.364Z,25
2017-01-31T09:54:09.135Z,25
2017-01-31T09:55:09.210Z,25
2017-01-31T09:56:09.890Z,25
2017-01-31T09:57:09.857Z,25
2017-01-31T09:58:09.837Z,25
2017-01-31T09:59:10.209Z,25
2017-01-31T10:00:09.436Z,25
2017-01-31T10:01:09.756Z,25
2017-01-31T10:02:10.144Z,20
2017-01-31T10:03:09.307Z,20
2017-01-31T10:04:09.280Z,25
2017-01-31T10:05:09.687Z,25
2017-01-31T10:06:10.037Z,25
2017-01-31T10:07:08.384Z,20
2017-01-31T10:08:09.185Z,20
2017-01-31T10:09:08.808Z,20
2017-01-31T10:10:08.739Z,20
2017-01-31T10:11:09.923Z,20
2017-01-31T10:12:09.087Z,25
2017-01-31T10:13:08.654Z,25
2017-01-31T10:14:08.692Z,25
2017-01-31T10:15:09.441Z,25
2017-01-31T10:16:09.395Z,30
2017-01-31T10:17:08.971Z,30
2017-01-31T10:18:08.939Z,30
2017-01-31T10:19:09.323Z,30
2017-01-31T10:20:08.477Z,25
2017-01-31T10:21:08.875Z,25
2017-01-31T10:22:08.875Z,25
2017-01-31T10:23:09.226Z,25
2017-01-31T10:24:09.187Z,25
2017-01-31T10:25:09.574Z,25
2017-01-31T10:26:08.733Z,30
2017-01-31T10:27:08.764Z,30
2017-01-31T10:28:08.738Z,30
2017-01-31T10:29:09.099Z,30
2017-01-31T10:30:09.059Z,30
2017-01-31T10:31:09.023Z,30
2017-01-31T10:32:09.443Z,30
2017-01-31T10:33:08.990Z,30
2017-01-31T10:34:08.941Z,30
2017-01-31T10:35:08.968Z,30
2017-01-31T10:36:09.308Z,30
2017-01-31T10:37:08.468Z,30
2017-01-31T10:38:08.858Z,30
2017-01-31T10:39:08.421Z,35
2017-01-31T10:40:08.814Z,35
2017-01-31T10:41:08.784Z,35
2017-01-31T10:42:08.754Z,35
2017-01-31T10:43:08.346Z,35
2017-01-31T10:44:08.760Z,35
2017-01-31T10:45:08.268Z,35
2017-01-31T10:46:08.254Z,35
2017-01-31T10:47:08.669Z,35
2017-01-31T10:48:09.045Z,35
2017-01-31T10:49:09.009Z,35
2017-01-31T10:50:08.651Z,40
2017-01-31T10:51:08.560Z,40
2017-01-31T10:52:08.115Z,40
2017-01-31T10:53:07.778Z,40
2017-01-31T10:54:08.490Z,40
2017-01-31T10:55:08.868Z,40
2017-01-31T10:56:08.081Z,40
2017-01-31T10:57:08.372Z,40
2017-01-31T10:58:08.371Z,40
2017-01-31T10:59:08.346Z,40
2017-01-31T11:00:08.014Z,40
2017-01-31T11:01:07.522Z,40
2017-01-31T11:02:08.674Z,40
2017-01-31T11:03:08.655Z,40
2017-01-31T11:04:08.212Z,40
2017-01-31T11:05:08.202Z,35
2017-01-31T11:06:07.359Z,35
2017-01-31T11:07:07.751Z,30
2017-01-31T11:08:07.771Z,30
2017-01-31T11:09:08.101Z,30
2017-01-31T11:10:07.747Z,25
2017-01-31T11:11:08.063Z,25
2017-01-31T11:12:07.632Z,25
2017-01-31T11:13:07.201Z,25
2017-01-31T11:14:07.560Z,25
2017-01-31T11:15:08.008Z,25
2017-01-31T11:16:07.141Z,25
2017-01-31T11:17:07.109Z,25
2017-01-31T11:18:07.947Z,25
2017-01-31T11:19:07.916Z,25
2017-01-31T11:20:07.825Z,25
2017-01-31T11:21:08.230Z,25
2017-01-31T11:22:06.989Z,25
2017-01-31T11:23:06.544Z,25
2017-01-31T11:24:08.153Z,25
2017-01-31T11:25:08.115Z,25
2017-01-31T11:26:08.091Z,25
2017-01-31T11:27:07.260Z,25
2017-01-31T11:28:07.330Z,30
2017-01-31T11:29:07.620Z,30
2017-01-31T11:30:07.609Z,30
2017-01-31T11:31:06.780Z,30
2017-01-31T11:32:06.321Z,30
2017-01-31T11:33:07.934Z,25
2017-01-31T11:34:07.113Z,25
2017-01-31T11:35:07.091Z,25
2017-01-31T11:36:07.540Z,25
2017-01-31T11:37:07.420Z,25
2017-01-31T11:38:07.804Z,25
2017-01-31T11:39:07.773Z,25
2017-01-31T11:40:07.358Z,25
2017-01-31T11:41:06.997Z,25
2017-01-31T11:42:07.713Z,30
2017-01-31T11:43:07.281Z,30
2017-01-31T11:44:07.513Z,35
2017-01-31T11:45:07.322Z,35
2017-01-31T11:46:07.279Z,35
2017-01-31T11:47:06.368Z,35
2017-01-31T11:48:07.758Z,30
2017-01-31T11:49:06.830Z,30
2017-01-31T11:50:06.330Z,30
2017-01-31T11:51:06.663Z,25
2017-01-31T11:52:07.136Z,25
2017-01-31T11:53:05.813Z,25
2017-01-31T11:54:06.586Z,25
2017-01-31T11:55:06.968Z,25
2017-01-31T11:56:07.394Z,25
2017-01-31T11:57:06.545Z,25
2017-01-31T11:58:06.195Z,25
2017-01-31T11:59:06.518Z,25
2017-01-31T12:00:06.053Z,20
2017-01-31T12:01:07.242Z,20
2017-01-31T12:02:06.412Z,20
2017-01-31T12:03:05.980Z,20
2017-01-31T12:04:07.172Z,20
2017-01-31T12:05:06.751Z,20
2017-01-31T12:06:06.324Z,20
2017-01-31T12:07:05.882Z,20
2017-01-31T12:08:06.277Z,20
2017-01-31T12:09:06.258Z,20
2017-01-31T12:10:06.258Z,20
2017-01-31T12:11:05.769Z,25
2017-01-31T12:12:06.184Z,25
2017-01-31T12:13:06.586Z,25
2017-01-31T12:14:06.528Z,25
2017-01-31T12:15:06.097Z,25
2017-01-31T12:16:06.542Z,25
2017-01-31T12:17:05.712Z,25
2017-01-31T12:18:05.629Z,25
2017-01-31T12:19:06.467Z,25
2017-01-31T12:20:06.050Z,25
2017-01-31T12:21:06.419Z,25
2017-01-31T12:22:06.316Z,25
2017-01-31T12:23:05.906Z,25
2017-01-31T12:24:06.273Z,25
2017-01-31T12:25:06.411Z,25
2017-01-31T12:26:05.831Z,25
2017-01-31T12:27:06.247Z,25
2017-01-31T12:28:05.458Z,25
2017-01-31T12:29:06.150Z,30
2017-01-31T12:30:06.124Z,30
2017-01-31T12:31:06.518Z,30
2017-01-31T12:32:06.533Z,30
2017-01-31T12:33:06.083Z,30
2017-01-31T12:34:06.557Z,30
2017-01-31T12:35:06.443Z,30
2017-01-31T12:36:05.605Z,30
2017-01-31T12:37:06.002Z,30
2017-01-31T12:38:06.342Z,30
2017-01-31T12:39:05.935Z,30
2017-01-31T12:40:05.914Z,30
2017-01-31T12:41:05.472Z,30
2017-01-31T12:42:05.853Z,30
2017-01-31T12:43:05.030Z,30
2017-01-31T12:44:05.891Z,30
2017-01-31T12:45:05.377Z,30
2017-01-31T12:46:05.750Z,30
2017-01-31T12:47:05.330Z,30
2017-01-31T12:48:06.106Z,30
2017-01-31T12:49:05.336Z,30
2017-01-31T12:50:05.697Z,30
2017-01-31T12:51:05.644Z,30
2017-01-31T12:52:05.193Z,30
2017-01-31T12:53:05.186Z,30
2017-01-31T12:54:05.158Z,30
2017-01-31T12:55:05.547Z,30
2017-01-31T12:56:04.294Z,30
2017-01-31T12:57:05.485Z,30
2017-01-31T12:58:04.646Z,30
2017-01-31T12:59:05.482Z,25
2017-01-31T13:00:05.810Z,25
2017-01-31T13:01:05.451Z,25
2017-01-31T13:02:05.781Z,30
2017-01-31T13:03:05.341Z,30
2017-01-31T13:04:04.920Z,30
2017-01-31T13:05:05.344Z,30
2017-01-31T13:06:05.693Z,30
2017-01-31T13:07:04.865Z,30
2017-01-31T13:08:05.273Z,30
2017-01-31T13:09:05.718Z,30
2017-01-31T13:10:04.811Z,30
2017-01-31T13:11:04.798Z,30
2017-01-31T13:12:05.117Z,30
2017-01-31T13:13:05.547Z,30
2017-01-31T13:14:05.082Z,30
2017-01-31T13:15:04.293Z,30
2017-01-31T13:16:05.493Z,30
2017-01-31T13:17:05.108Z,30
2017-01-31T13:18:05.480Z,30
2017-01-31T13:19:05.447Z,30
2017-01-31T13:20:04.935Z,30
2017-01-31T13:21:04.532Z,30
2017-01-31T13:22:04.498Z,30
2017-01-31T13:23:04.915Z,30
2017-01-31T13:24:04.452Z,30
2017-01-31T13:25:04.879Z,30
2017-01-31T13:26:04.823Z,35
2017-01-31T13:27:04.371Z,35
2017-01-31T13:28:05.204Z,35
2017-01-31T13:29:03.913Z,30
2017-01-31T13:30:04.287Z,30
2017-01-31T13:31:03.958Z,30
2017-01-31T13:32:04.752Z,30
2017-01-31T13:33:04.617Z,30
2017-01-31T13:34:04.605Z,30
2017-01-31T13:35:05.027Z,30
2017-01-31T13:36:03.751Z,25
2017-01-31T13:37:04.575Z,25
2017-01-31T13:38:05.165Z,25
2017-01-31T13:39:04.617Z,25
2017-01-31T13:40:04.567Z,25
2017-01-31T13:41:04.460Z,25
2017-01-31T13:42:04.401Z,25
2017-01-31T13:43:04.183Z,20
2017-01-31T13:44:04.408Z,20
2017-01-31T13:45:04.045Z,20
2017-01-31T13:46:04.747Z,20
2017-01-31T13:47:04.382Z,15
2017-01-31T13:48:04.738Z,15
2017-01-31T13:49:04.280Z,15
2017-01-31T13:50:04.284Z,15
2017-01-31T13:51:03.823Z,15
2017-01-31T13:52:04.205Z,15
2017-01-31T13:53:03.772Z,15
2017-01-31T13:54:04.731Z,15
2017-01-31T13:55:04.135Z,15
2017-01-31T13:56:03.702Z,15
2017-01-31T13:57:04.064Z,15
2017-01-31T13:58:03.774Z,10
2017-01-31T13:59:03.611Z,10
2017-01-31T14:00:03.591Z,10
2017-01-31T14:01:03.954Z,10
2017-01-31T14:02:03.946Z,15
2017-01-31T14:03:03.902Z,15
2017-01-31T14:04:03.079Z,15
2017-01-31T14:05:03.049Z,10
2017-01-31T14:06:03.839Z,10
2017-01-31T14:07:03.818Z,10
2017-01-31T14:08:03.814Z,10
2017-01-31T14:09:03.369Z,10
2017-01-31T14:10:03.342Z,10
2017-01-31T14:11:03.349Z,10
2017-01-31T14:12:03.729Z,10
2017-01-31T14:13:03.282Z,10
2017-01-31T14:14:04.102Z,10
2017-01-31T14:15:04.074Z,10
2017-01-31T14:16:03.185Z,10
2017-01-31T14:17:03.164Z,10
2017-01-31T14:18:02.761Z,10
2017-01-31T14:19:03.924Z,10
2017-01-31T14:20:03.500Z,10
2017-01-31T14:21:03.532Z,10
2017-01-31T14:22:03.072Z,10
2017-01-31T14:23:03.505Z,10
2017-01-31T14:24:03.416Z,10
2017-01-31T14:25:03.430Z,10
2017-01-31T14:26:03.769Z,10
2017-01-31T14:27:02.533Z,10
2017-01-31T14:28:03.740Z,10
2017-01-31T14:29:02.878Z,10
2017-01-31T14:30:03.333Z,10
2017-01-31T14:31:02.422Z,10
2017-01-31T14:32:02.847Z,10
2017-01-31T14:33:02.803Z,10